Time,TemperatureF,DewpointF,PressureIn,WindDirection,WindDirectionDegrees,WindSpeedMPH,WindSpeedGustMPH,Humidity,HourlyPrecipIn,Conditions,Clouds,dailyrainin,SolarRadiationWatts/m^2,SoftwareType,DateUTC
2013-08-23 00:03:00,69.4,67.0,30.06,ENE,63,3.0,6.0,92,0.00,,BKN095,0.00,0.00,VWS V14.01,2013-08-23 05:03:00,
2013-08-23 00:09:00,69.3,66.9,30.06,ENE,63,2.0,4.0,92,0.00,,BKN095,0.00,0.00,VWS V14.01,2013-08-23 05:09:00,
2013-08-23 00:14:00,69.3,66.9,30.06,ENE,63,3.0,4.0,92,0.00,,BKN095,0.00,0.00,VWS V14.01,2013-08-23 05:14:00,
2013-08-23 00:19:00,69.3,66.9,30.06,ENE,65,4.0,6.0,92,0.00,,BKN095,0.00,0.00,VWS V14.01,2013-08-23 05:19:00,
2013-08-23 00:25:00,69.3,66.9,30.06,ENE,65,2.0,2.0,92,0.00,,BKN095,0.00,0.00,VWS V14.01,2013-08-23 05:25:00,
2013-08-23 00:30:00,69.3,66.9,30.05,ENE,65,3.0,3.0,92,0.00,,BKN095,0.00,0.00,VWS V14.01,2013-08-23 05:30:00,
2013-08-23 00:36:00,69.1,66.7,30.05,ENE,65,2.0,4.0,92,0.00,,BKN095,0.00,0.00,VWS V14.01,2013-08-23 05:36:00,
2013-08-23 00:41:00,69.1,66.7,30.05,ENE,65,0.0,2.0,92,0.00,,BKN095,0.00,0.00,VWS V14.01,2013-08-23 05:41:00,
2013-08-23 00:46:00,69.1,66.7,30.05,ENE,65,1.0,3.0,92,0.00,,BKN095,0.00,0.00,VWS V14.01,2013-08-23 05:46:00,
2013-08-23 00:52:00,69.1,66.4,30.05,ENE,65,3.0,4.0,91,0.00,,BKN095,0.00,0.00,VWS V14.01,2013-08-23 05:52:00,
2013-08-23 00:57:00,69.1,66.4,30.05,ENE,65,1.0,1.0,91,0.00,,BKN095,0.00,0.00,VWS V14.01,2013-08-23 05:57:00,
2013-08-23 01:02:00,69.1,66.4,30.05,ENE,65,1.0,3.0,91,0.00,,,0.00,0.00,VWS V14.01,2013-08-23 06:02:00,
2013-08-23 01:07:00,69.1,66.4,30.05,ENE,65,0.0,1.0,91,0.00,,,0.00,0.00,VWS V14.01,2013-08-23 06:07:00,
2013-08-23 01:13:00,69.1,66.4,30.05,ENE,65,2.0,3.0,91,0.00,,,0.00,0.00,VWS V14.01,2013-08-23 06:13:00,
2013-08-23 01:18:00,69.1,66.4,30.05,ENE,65,0.0,1.0,91,0.00,,,0.00,0.00,VWS V14.01,2013-08-23 06:18:00,
2013-08-23 01:24:00,69.1,66.4,30.04,ESE,109,0.0,4.0,91,0.00,,,0.00,0.00,VWS V14.01,2013-08-23 06:24:00,
2013-08-23 01:29:00,69.1,66.4,30.04,East,96,4.0,5.0,91,0.00,,,0.00,0.00,VWS V14.01,2013-08-23 06:29:00,
2013-08-23 01:35:00,69.1,66.4,30.04,East,96,1.0,2.0,91,0.00,,,0.00,0.00,VWS V14.01,2013-08-23 06:35:00,
2013-08-23 01:40:00,69.3,66.6,30.04,East,96,5.0,5.0,91,0.00,,,0.00,0.00,VWS V14.01,2013-08-23 06:40:00,
2013-08-23 01:46:00,69.3,66.2,30.04,East,96,0.0,1.0,90,0.00,,,0.00,0.00,VWS V14.01,2013-08-23 06:46:00,
2013-08-23 01:51:00,69.3,66.2,30.04,East,96,2.0,5.0,90,0.00,,,0.00,0.00,VWS V14.01,2013-08-23 06:51:00,
2013-08-23 01:57:00,69.3,66.2,30.04,East,96,0.0,2.0,90,0.00,,,0.00,0.00,VWS V14.01,2013-08-23 06:57:00,
2013-08-23 02:03:00,69.3,66.2,30.04,East,96,1.0,1.0,90,0.00,,,0.00,0.00,VWS V14.01,2013-08-23 07:03:00,
2013-08-23 02:09:00,69.3,66.2,30.04,East,96,0.0,1.0,90,0.00,,,0.00,0.00,VWS V14.01,2013-08-23 07:09:00,
2013-08-23 02:14:00,69.4,66.3,30.04,East,96,2.0,5.0,90,0.00,,,0.00,0.00,VWS V14.01,2013-08-23 07:14:00,
2013-08-23 02:20:00,69.4,66.0,30.04,East,96,0.0,2.0,89,0.00,,,0.00,0.00,VWS V14.01,2013-08-23 07:20:00,
2013-08-23 02:25:00,69.6,66.2,30.04,East,96,4.0,5.0,89,0.00,,,0.00,0.00,VWS V14.01,2013-08-23 07:25:00,
2013-08-23 02:30:00,69.6,66.2,30.04,East,98,5.0,5.0,89,0.00,,,0.00,0.00,VWS V14.01,2013-08-23 07:30:00,
2013-08-23 02:36:00,69.8,66.1,30.04,East,98,2.0,4.0,88,0.00,,,0.00,0.00,VWS V14.01,2013-08-23 07:36:00,
2013-08-23 02:41:00,69.8,66.1,30.04,East,98,0.0,0.0,88,0.00,,,0.00,0.00,VWS V14.01,2013-08-23 07:41:00,
2013-08-23 02:47:00,69.9,66.2,30.04,East,98,1.0,4.0,88,0.00,,,0.00,0.00,VWS V14.01,2013-08-23 07:47:00,
2013-08-23 02:52:00,69.9,65.9,30.04,East,98,0.0,0.0,87,0.00,,,0.00,0.00,VWS V14.01,2013-08-23 07:52:00,
2013-08-23 02:57:00,69.9,65.9,30.05,East,98,0.0,2.0,87,0.00,,,0.00,0.00,VWS V14.01,2013-08-23 07:57:00,
2013-08-23 03:02:00,69.9,65.9,30.05,East,98,0.0,0.0,87,0.00,,OVC090,0.00,0.00,VWS V14.01,2013-08-23 08:02:00,
2013-08-23 03:07:00,69.9,65.9,30.05,East,98,0.0,4.0,87,0.00,,OVC090,0.00,0.00,VWS V14.01,2013-08-23 08:07:00,
2013-08-23 03:12:00,69.9,65.9,30.05,East,98,0.0,0.0,87,0.00,,OVC090,0.00,0.00,VWS V14.01,2013-08-23 08:12:00,
2013-08-23 03:18:00,69.9,65.9,30.05,East,98,1.0,4.0,87,0.00,,OVC090,0.00,0.00,VWS V14.01,2013-08-23 08:18:00,
2013-08-23 03:24:00,69.9,65.9,30.05,East,98,2.0,2.0,87,0.00,,OVC090,0.00,0.00,VWS V14.01,2013-08-23 08:24:00,
2013-08-23 03:29:00,69.9,65.9,30.04,East,98,0.0,0.0,87,0.00,,OVC090,0.00,0.00,VWS V14.01,2013-08-23 08:29:00,
2013-08-23 03:34:00,69.9,65.9,30.04,East,98,0.0,0.0,87,0.00,,OVC090,0.00,0.00,VWS V14.01,2013-08-23 08:34:00,
2013-08-23 03:39:00,69.9,66.2,30.04,East,98,0.0,0.0,88,0.00,,OVC090,0.00,0.00,VWS V14.01,2013-08-23 08:39:00,
2013-08-23 03:45:00,69.8,66.1,30.05,East,98,0.0,0.0,88,0.00,,OVC090,0.00,0.00,VWS V14.01,2013-08-23 08:45:00,
2013-08-23 03:51:00,69.6,65.9,30.05,East,98,0.0,0.0,88,0.00,,OVC090,0.00,0.00,VWS V14.01,2013-08-23 08:51:00,
2013-08-23 03:56:00,69.6,65.9,30.05,East,98,0.0,0.0,88,0.00,,OVC090,0.00,0.00,VWS V14.01,2013-08-23 08:56:00,
2013-08-23 04:01:00,69.4,65.7,30.05,East,98,0.0,0.0,88,0.00,,,0.00,0.00,VWS V14.01,2013-08-23 09:01:00,
2013-08-23 04:07:00,69.4,65.7,30.05,East,98,0.0,0.0,88,0.00,,,0.00,0.00,VWS V14.01,2013-08-23 09:07:00,
2013-08-23 04:12:00,69.3,65.6,30.05,East,98,0.0,0.0,88,0.00,,,0.00,0.00,VWS V14.01,2013-08-23 09:12:00,
2013-08-23 04:17:00,69.1,65.7,30.05,East,98,0.0,0.0,89,0.00,,,0.00,0.00,VWS V14.01,2013-08-23 09:17:00,
2013-08-23 04:22:00,68.9,65.5,30.05,East,98,0.0,0.0,89,0.00,,,0.00,0.00,VWS V14.01,2013-08-23 09:22:00,
2013-08-23 04:28:00,68.6,65.2,30.05,East,98,0.0,0.0,89,0.00,,,0.00,0.00,VWS V14.01,2013-08-23 09:28:00,
2013-08-23 04:33:00,68.4,65.4,30.05,East,98,0.0,0.0,90,0.00,,,0.00,0.00,VWS V14.01,2013-08-23 09:33:00,
2013-08-23 04:38:00,68.1,65.1,30.06,East,98,0.0,0.0,90,0.00,,,0.00,0.00,VWS V14.01,2013-08-23 09:38:00,
2013-08-23 04:44:00,67.9,65.2,30.06,East,98,0.0,0.0,91,0.00,,,0.00,0.00,VWS V14.01,2013-08-23 09:44:00,
2013-08-23 04:49:00,67.6,64.9,30.06,East,98,0.0,0.0,91,0.00,,,0.00,0.00,VWS V14.01,2013-08-23 09:49:00,
2013-08-23 04:54:00,67.4,65.0,30.06,East,98,0.0,0.0,92,0.00,,,0.00,0.00,VWS V14.01,2013-08-23 09:54:00,
2013-08-23 04:59:00,67.4,65.0,30.06,East,98,0.0,0.0,92,0.00,,,0.00,0.00,VWS V14.01,2013-08-23 09:59:00,
2013-08-23 05:04:00,67.3,64.9,30.06,East,98,0.0,0.0,92,0.00,,,0.00,0.00,VWS V14.01,2013-08-23 10:04:00,
2013-08-23 05:09:00,67.3,64.9,30.06,East,98,0.0,0.0,92,0.00,,,0.00,0.00,VWS V14.01,2013-08-23 10:09:00,
2013-08-23 05:15:00,67.1,65.0,30.06,East,98,0.0,0.0,93,0.00,,,0.00,0.00,VWS V14.01,2013-08-23 10:15:00,
2013-08-23 05:21:00,67.1,65.0,30.06,East,98,0.0,0.0,93,0.00,,,0.00,0.00,VWS V14.01,2013-08-23 10:21:00,
2013-08-23 05:26:00,66.9,64.8,30.06,East,98,0.0,0.0,93,0.00,,,0.00,0.00,VWS V14.01,2013-08-23 10:26:00,
2013-08-23 05:32:00,66.8,64.7,30.06,East,98,0.0,0.0,93,0.00,,,0.00,0.00,VWS V14.01,2013-08-23 10:32:00,
2013-08-23 05:37:00,66.8,64.7,30.06,East,98,0.0,0.0,93,0.00,,,0.00,0.00,VWS V14.01,2013-08-23 10:37:00,
2013-08-23 05:42:00,66.6,64.5,30.06,East,98,0.0,0.0,93,0.00,,,0.00,0.00,VWS V14.01,2013-08-23 10:42:00,
2013-08-23 05:48:00,66.4,64.6,30.06,East,98,0.0,0.0,94,0.00,,,0.00,0.00,VWS V14.01,2013-08-23 10:48:00,
2013-08-23 05:53:00,66.3,64.5,30.06,East,98,0.0,0.0,94,0.00,,,0.00,0.00,VWS V14.01,2013-08-23 10:53:00,
2013-08-23 05:59:00,66.1,64.3,30.07,East,98,0.0,0.0,94,0.00,,,0.00,0.00,VWS V14.01,2013-08-23 10:59:00,
2013-08-23 06:05:00,65.8,64.0,30.07,East,98,0.0,1.0,94,0.00,,,0.00,0.00,VWS V14.01,2013-08-23 11:05:00,
2013-08-23 06:11:00,65.5,63.7,30.07,East,98,0.0,0.0,94,0.00,,,0.00,0.00,VWS V14.01,2013-08-23 11:11:00,
2013-08-23 06:16:00,65.2,63.4,30.08,East,98,0.0,0.0,94,0.00,,,0.00,0.00,VWS V14.01,2013-08-23 11:16:00,
2013-08-23 06:21:00,65.0,63.2,30.08,East,98,0.0,0.0,94,0.00,,,0.00,7.00,VWS V14.01,2013-08-23 11:21:00,
2013-08-23 06:26:00,65.0,63.5,30.08,East,98,0.0,0.0,95,0.00,,,0.00,9.00,VWS V14.01,2013-08-23 11:26:00,
2013-08-23 06:32:00,64.7,63.2,30.08,East,98,0.0,0.0,95,0.00,,,0.00,12.00,VWS V14.01,2013-08-23 11:32:00,
2013-08-23 06:38:00,64.5,63.0,30.09,East,98,0.0,0.0,95,0.00,,,0.00,18.00,VWS V14.01,2013-08-23 11:38:00,
2013-08-23 06:44:00,64.3,62.8,30.09,East,98,0.0,0.0,95,0.00,,,0.00,23.00,VWS V14.01,2013-08-23 11:44:00,
2013-08-23 06:49:00,64.2,62.7,30.09,East,98,0.0,0.0,95,0.00,,,0.00,26.00,VWS V14.01,2013-08-23 11:49:00,
2013-08-23 06:54:00,63.9,62.4,30.09,East,97,0.0,0.0,95,0.00,,,0.00,32.00,VWS V14.01,2013-08-23 11:54:00,
2013-08-23 07:00:00,63.7,62.5,30.09,East,97,0.0,0.0,96,0.00,,,0.00,44.00,VWS V14.01,2013-08-23 12:00:00,
2013-08-23 07:06:00,63.7,62.5,30.09,East,90,0.0,0.0,96,0.00,,,0.00,54.00,VWS V14.01,2013-08-23 12:06:00,
2013-08-23 07:11:00,63.5,62.3,30.09,East,90,0.0,0.0,96,0.00,,,0.00,67.00,VWS V14.01,2013-08-23 12:11:00,
2013-08-23 07:16:00,63.7,62.5,30.10,East,90,0.0,0.0,96,0.00,,,0.00,72.00,VWS V14.01,2013-08-23 12:16:00,
2013-08-23 07:21:00,63.9,62.7,30.10,East,90,0.0,0.0,96,0.00,,,0.00,74.00,VWS V14.01,2013-08-23 12:21:00,
2013-08-23 07:26:00,63.9,62.7,30.10,East,90,0.0,0.0,96,0.00,,,0.00,79.00,VWS V14.01,2013-08-23 12:26:00,
2013-08-23 07:31:00,63.9,62.7,30.10,NNE,28,1.0,4.0,96,0.00,,,0.00,81.00,VWS V14.01,2013-08-23 12:31:00,
2013-08-23 07:36:00,63.9,62.7,30.10,NNE,28,3.0,3.0,96,0.00,,,0.00,91.00,VWS V14.01,2013-08-23 12:36:00,
2013-08-23 07:41:00,63.9,62.7,30.11,NNE,28,2.0,3.0,96,0.00,,,0.00,107.00,VWS V14.01,2013-08-23 12:41:00,
2013-08-23 07:46:00,64.0,63.1,30.11,NNE,28,3.0,3.0,97,0.00,,,0.00,116.00,VWS V14.01,2013-08-23 12:46:00,
2013-08-23 07:51:00,64.2,63.3,30.11,NNE,28,1.0,1.0,97,0.00,,,0.00,144.00,VWS V14.01,2013-08-23 12:51:00,
2013-08-23 07:56:00,64.5,63.6,30.11,NNE,28,0.0,3.0,97,0.00,,,0.00,186.00,VWS V14.01,2013-08-23 12:56:00,
2013-08-23 08:01:00,64.7,63.8,30.11,NNE,28,2.0,3.0,97,0.00,,,0.00,155.00,VWS V14.01,2013-08-23 13:01:00,
2013-08-23 08:07:00,65.0,64.1,30.11,NNE,28,2.0,5.0,97,0.00,,,0.00,165.00,VWS V14.01,2013-08-23 13:07:00,
2013-08-23 08:13:00,65.3,64.4,30.11,NNE,28,2.0,3.0,97,0.00,,,0.00,165.00,VWS V14.01,2013-08-23 13:13:00,
2013-08-23 08:18:00,65.5,64.6,30.11,NNE,28,5.0,5.0,97,0.00,,,0.00,172.00,VWS V14.01,2013-08-23 13:18:00,
2013-08-23 08:23:00,65.3,64.1,30.11,NNE,33,3.0,5.0,96,0.00,,,0.00,158.00,VWS V14.01,2013-08-23 13:23:00,
2013-08-23 08:28:00,65.5,64.6,30.11,NNE,32,4.0,5.0,97,0.00,,,0.00,181.00,VWS V14.01,2013-08-23 13:28:00,
2013-08-23 08:33:00,65.5,64.6,30.11,NNE,33,4.0,5.0,97,0.00,,,0.00,181.00,VWS V14.01,2013-08-23 13:33:00,
2013-08-23 08:38:00,65.6,64.7,30.11,NE,34,5.0,6.0,97,0.00,,,0.00,171.00,VWS V14.01,2013-08-23 13:38:00,
2013-08-23 08:43:00,66.0,65.1,30.11,NE,37,4.0,4.0,97,0.00,,,0.00,239.00,VWS V14.01,2013-08-23 13:43:00,
2013-08-23 08:48:00,66.3,65.4,30.11,NNE,13,6.0,8.0,97,0.00,,,0.00,193.00,VWS V14.01,2013-08-23 13:48:00,
2013-08-23 08:53:00,66.4,65.5,30.11,NNE,17,5.0,7.0,97,0.00,,,0.00,220.00,VWS V14.01,2013-08-23 13:53:00,
2013-08-23 08:59:00,66.8,65.9,30.11,NNE,13,6.0,7.0,97,0.00,,,0.00,316.00,VWS V14.01,2013-08-23 13:59:00,
2013-08-23 09:05:00,66.9,66.0,30.11,NNE,21,4.0,6.0,97,0.00,,,0.00,200.00,VWS V14.01,2013-08-23 14:05:00,
2013-08-23 09:10:00,67.1,65.9,30.12,NE,34,4.0,6.0,96,0.00,,,0.00,209.00,VWS V14.01,2013-08-23 14:10:00,
2013-08-23 09:15:00,66.9,65.7,30.12,ENE,63,5.0,6.0,96,0.00,,,0.00,223.00,VWS V14.01,2013-08-23 14:15:00,
2013-08-23 09:20:00,67.1,65.9,30.12,NNE,30,7.0,7.0,96,0.00,,,0.00,167.00,VWS V14.01,2013-08-23 14:20:00,
2013-08-23 09:25:00,67.3,66.1,30.12,NE,53,3.0,4.0,96,0.00,,,0.00,200.00,VWS V14.01,2013-08-23 14:25:00,
2013-08-23 09:30:00,67.4,65.9,30.12,NE,49,3.0,4.0,95,0.00,,,0.00,206.00,VWS V14.01,2013-08-23 14:30:00,
2013-08-23 09:35:00,67.8,66.3,30.12,NNE,21,3.0,9.0,95,0.00,,,0.00,190.00,VWS V14.01,2013-08-23 14:35:00,
2013-08-23 09:40:00,67.9,66.1,30.12,NE,48,5.0,5.0,94,0.00,,,0.00,220.00,VWS V14.01,2013-08-23 14:40:00,
2013-08-23 09:45:00,68.3,66.2,30.12,NE,40,6.0,7.0,93,0.00,,,0.00,264.00,VWS V14.01,2013-08-23 14:45:00,
2013-08-23 09:51:00,68.6,66.5,30.12,NE,35,5.0,7.0,93,0.00,,,0.00,251.00,VWS V14.01,2013-08-23 14:51:00,
2013-08-23 09:56:00,68.8,66.1,30.12,NNE,19,3.0,6.0,91,0.00,,,0.00,271.00,VWS V14.01,2013-08-23 14:56:00,
2013-08-23 10:01:00,68.9,66.2,30.12,NNE,26,3.0,6.0,91,0.00,,,0.00,237.00,VWS V14.01,2013-08-23 15:01:00,
2013-08-23 10:06:00,69.3,66.2,30.12,NE,35,6.0,6.0,90,0.00,,,0.00,234.00,VWS V14.01,2013-08-23 15:06:00,
2013-08-23 10:11:00,69.3,65.6,30.12,North,360,4.0,8.0,88,0.00,,,0.00,239.00,VWS V14.01,2013-08-23 15:11:00,
2013-08-23 10:17:00,69.4,65.7,30.12,NE,44,3.0,6.0,88,0.00,,,0.00,258.00,VWS V14.01,2013-08-23 15:17:00,
2013-08-23 10:23:00,69.6,65.2,30.13,NE,42,5.0,5.0,86,0.00,,,0.00,411.00,VWS V14.01,2013-08-23 15:23:00,
2013-08-23 10:28:00,69.9,65.5,30.13,ENE,61,5.0,6.0,86,0.00,,,0.00,432.00,VWS V14.01,2013-08-23 15:28:00,
2013-08-23 10:34:00,70.6,65.5,30.12,ENE,61,2.0,4.0,84,0.00,,,0.00,480.00,VWS V14.01,2013-08-23 15:34:00,
2013-08-23 10:39:00,70.8,65.7,30.13,North,11,6.0,9.0,84,0.00,,,0.00,388.00,VWS V14.01,2013-08-23 15:39:00,
2013-08-23 10:44:00,70.8,65.7,30.13,NNE,28,5.0,6.0,84,0.00,,,0.00,304.00,VWS V14.01,2013-08-23 15:44:00,
2013-08-23 10:50:00,70.9,65.8,30.13,NNE,19,0.0,5.0,84,0.00,,,0.00,373.00,VWS V14.01,2013-08-23 15:50:00,
2013-08-23 10:56:00,71.1,65.7,30.12,NNE,28,3.0,7.0,83,0.00,,,0.00,294.00,VWS V14.01,2013-08-23 15:56:00,
2013-08-23 11:01:00,71.6,66.2,30.12,NNE,28,5.0,6.0,83,0.00,,,0.00,661.00,VWS V14.01,2013-08-23 16:01:00,
2013-08-23 11:06:00,72.3,66.2,30.12,NNE,26,1.0,4.0,81,0.00,,,0.00,445.00,VWS V14.01,2013-08-23 16:06:00,
2013-08-23 11:12:00,73.2,66.7,30.12,NNE,26,0.0,6.0,80,0.00,,,0.00,884.00,VWS V14.01,2013-08-23 16:12:00,
2013-08-23 11:17:00,73.3,65.7,30.12,NE,34,5.0,7.0,77,0.00,,,0.00,345.00,VWS V14.01,2013-08-23 16:17:00,
2013-08-23 11:22:00,73.2,65.6,30.12,NNE,15,4.0,7.0,77,0.00,,,0.00,318.00,VWS V14.01,2013-08-23 16:22:00,
2013-08-23 11:27:00,73.7,66.1,30.12,NNE,17,4.0,5.0,77,0.00,,,0.00,830.00,VWS V14.01,2013-08-23 16:27:00,
2013-08-23 11:33:00,74.2,66.2,30.12,NNE,16,6.0,6.0,76,0.00,,,0.00,805.00,VWS V14.01,2013-08-23 16:33:00,
2013-08-23 11:38:00,74.4,66.0,30.12,NW,304,4.0,8.0,75,0.00,,,0.00,879.00,VWS V14.01,2013-08-23 16:38:00,
2013-08-23 11:43:00,74.9,66.1,30.12,North,9,3.0,6.0,74,0.00,,,0.00,928.00,VWS V14.01,2013-08-23 16:43:00,
2013-08-23 11:48:00,75.1,65.1,30.12,NE,51,5.0,9.0,71,0.00,,,0.00,844.00,VWS V14.01,2013-08-23 16:48:00,
2013-08-23 11:53:00,75.3,64.8,30.12,NNE,14,9.0,9.0,70,0.00,,,0.00,851.00,VWS V14.01,2013-08-23 16:53:00,
2013-08-23 11:58:00,75.3,64.8,30.12,NNE,13,9.0,9.0,70,0.00,,,0.00,854.00,VWS V14.01,2013-08-23 16:58:00,
2013-08-23 12:03:00,75.3,64.4,30.12,NNE,20,6.0,8.0,69,0.00,,SCT015,0.00,853.00,VWS V14.01,2013-08-23 17:03:00,
2013-08-23 12:09:00,76.0,64.7,30.12,NNE,18,5.0,9.0,68,0.00,,SCT015,0.00,860.00,VWS V14.01,2013-08-23 17:09:00,
2013-08-23 12:15:00,76.3,65.0,30.11,NNE,21,5.0,9.0,68,0.00,,SCT015,0.00,863.00,VWS V14.01,2013-08-23 17:15:00,
2013-08-23 12:20:00,76.8,65.0,30.11,NNE,26,6.0,6.0,67,0.00,,SCT015,0.00,861.00,VWS V14.01,2013-08-23 17:20:00,
2013-08-23 12:25:00,77.0,65.2,30.11,NE,43,5.0,7.0,67,0.00,,SCT015,0.00,868.00,VWS V14.01,2013-08-23 17:25:00,
2013-08-23 12:30:00,77.2,64.1,30.11,ENE,68,4.0,5.0,64,0.00,,SCT015,0.00,877.00,VWS V14.01,2013-08-23 17:30:00,
2013-08-23 12:35:00,77.9,64.3,30.11,NE,43,2.0,7.0,63,0.00,,SCT015,0.00,872.00,VWS V14.01,2013-08-23 17:35:00,
2013-08-23 12:40:00,77.7,63.7,30.11,ENE,62,6.0,7.0,62,0.00,,SCT015,0.00,881.00,VWS V14.01,2013-08-23 17:40:00,
2013-08-23 12:45:00,77.7,64.6,30.11,NE,46,6.0,9.0,64,0.00,,SCT015,0.00,877.00,VWS V14.01,2013-08-23 17:45:00,
2013-08-23 12:50:00,77.7,64.6,30.10,ENE,76,4.0,5.0,64,0.00,,SCT015,0.00,896.00,VWS V14.01,2013-08-23 17:50:00,
2013-08-23 12:55:00,77.7,64.6,30.10,NNE,26,7.0,7.0,64,0.00,,SCT015,0.00,870.00,VWS V14.01,2013-08-23 17:55:00,
2013-08-23 13:00:00,77.7,65.0,30.10,NNE,19,9.0,9.0,65,0.00,,FEW024,0.00,896.00,VWS V14.01,2013-08-23 18:00:00,
2013-08-23 13:05:00,77.7,64.6,30.10,NE,46,5.0,7.0,64,0.00,,FEW024,0.00,884.00,VWS V14.01,2013-08-23 18:05:00,
2013-08-23 13:11:00,77.7,65.0,30.10,ESE,109,4.0,9.0,65,0.00,,FEW024,0.00,898.00,VWS V14.01,2013-08-23 18:11:00,
2013-08-23 13:17:00,78.1,65.4,30.10,NE,34,5.0,9.0,65,0.00,,FEW024,0.00,930.00,VWS V14.01,2013-08-23 18:17:00,
2013-08-23 13:23:00,78.6,65.0,30.10,North,360,5.0,9.0,63,0.00,,FEW024,0.00,893.00,VWS V14.01,2013-08-23 18:23:00,
2013-08-23 13:28:00,78.8,65.6,30.10,East,86,6.0,6.0,64,0.00,,FEW024,0.00,888.00,VWS V14.01,2013-08-23 18:28:00,
2013-08-23 13:33:00,78.8,65.2,30.10,East,84,6.0,11.0,63,0.00,,FEW024,0.00,898.00,VWS V14.01,2013-08-23 18:33:00,
2013-08-23 13:39:00,79.2,65.1,30.09,NNE,23,9.0,14.0,62,0.00,,FEW024,0.00,893.00,VWS V14.01,2013-08-23 18:39:00,
2013-08-23 13:44:00,79.2,64.1,30.09,NE,53,3.0,11.0,60,0.00,,FEW024,0.00,893.00,VWS V14.01,2013-08-23 18:44:00,
2013-08-23 13:49:00,79.2,65.1,30.09,NE,45,7.0,13.0,62,0.00,,FEW024,0.00,870.00,VWS V14.01,2013-08-23 18:49:00,
2013-08-23 13:55:00,79.4,64.8,30.08,NE,52,7.0,11.0,61,0.00,,FEW024,0.00,872.00,VWS V14.01,2013-08-23 18:55:00,
2013-08-23 14:00:00,79.6,64.0,30.08,NE,44,4.0,15.0,59,0.00,,SCT090,0.00,853.00,VWS V14.01,2013-08-23 19:00:00,
2013-08-23 14:05:00,79.8,62.7,30.08,NE,50,5.0,9.0,56,0.00,,SCT090,0.00,861.00,VWS V14.01,2013-08-23 19:05:00,
2013-08-23 14:10:00,80.3,62.7,30.08,NNE,22,3.0,9.0,55,0.00,,SCT090,0.00,851.00,VWS V14.01,2013-08-23 19:10:00,
2013-08-23 14:15:00,80.5,62.9,30.08,NE,36,9.0,11.0,55,0.00,,SCT090,0.00,849.00,VWS V14.01,2013-08-23 19:15:00,
2013-08-23 14:20:00,80.3,63.2,30.09,ENE,72,4.0,5.0,56,0.00,,SCT090,0.00,823.00,VWS V14.01,2013-08-23 19:20:00,
2013-08-23 14:26:00,80.5,61.3,30.08,NNE,19,6.0,10.0,52,0.00,,SCT090,0.00,830.00,VWS V14.01,2013-08-23 19:26:00,
2013-08-23 14:31:00,80.5,62.9,30.08,NE,44,3.0,8.0,55,0.00,,SCT090,0.00,838.00,VWS V14.01,2013-08-23 19:31:00,
2013-08-23 14:36:00,80.9,62.7,30.08,East,82,6.0,8.0,54,0.00,,SCT090,0.00,817.00,VWS V14.01,2013-08-23 19:36:00,
2013-08-23 14:41:00,80.9,62.2,30.08,NNE,28,4.0,9.0,53,0.00,,SCT090,0.00,809.00,VWS V14.01,2013-08-23 19:41:00,
2013-08-23 14:46:00,81.1,61.8,30.09,NNE,30,8.0,11.0,52,0.00,,SCT090,0.00,802.00,VWS V14.01,2013-08-23 19:46:00,
2013-08-23 14:51:00,80.9,61.6,30.09,ENE,63,6.0,6.0,52,0.00,,SCT090,0.00,802.00,VWS V14.01,2013-08-23 19:51:00,
2013-08-23 14:56:00,80.9,61.6,30.09,ENE,59,3.0,10.0,52,0.00,,SCT090,0.00,802.00,VWS V14.01,2013-08-23 19:56:00,
2013-08-23 15:01:00,81.2,61.4,30.08,ENE,64,10.0,10.0,51,0.00,,CLR,0.00,795.00,VWS V14.01,2013-08-23 20:01:00,
2013-08-23 15:06:00,81.1,61.8,30.08,NNE,25,6.0,7.0,52,0.00,,CLR,0.00,789.00,VWS V14.01,2013-08-23 20:06:00,
2013-08-23 15:11:00,81.2,60.8,30.08,ENE,75,7.0,13.0,50,0.00,,CLR,0.00,763.00,VWS V14.01,2013-08-23 20:11:00,
2013-08-23 15:16:00,81.6,61.2,30.08,NE,34,7.0,8.0,50,0.00,,CLR,0.00,768.00,VWS V14.01,2013-08-23 20:16:00,
2013-08-23 15:21:00,81.6,61.7,30.08,NE,34,5.0,11.0,51,0.00,,CLR,0.00,745.00,VWS V14.01,2013-08-23 20:21:00,
2013-08-23 15:26:00,81.8,61.9,30.08,NE,48,6.0,10.0,51,0.00,,CLR,0.00,735.00,VWS V14.01,2013-08-23 20:26:00,
2013-08-23 15:31:00,81.8,61.4,30.08,NE,42,3.0,9.0,50,0.00,,CLR,0.00,726.00,VWS V14.01,2013-08-23 20:31:00,
2013-08-23 15:36:00,81.8,61.4,30.07,NE,40,3.0,8.0,50,0.00,,CLR,0.00,714.00,VWS V14.01,2013-08-23 20:36:00,
2013-08-23 15:41:00,82.0,61.5,30.07,East,80,4.0,7.0,50,0.00,,CLR,0.00,698.00,VWS V14.01,2013-08-23 20:41:00,
2013-08-23 15:46:00,82.0,60.4,30.07,ENE,64,6.0,8.0,48,0.00,,CLR,0.00,691.00,VWS V14.01,2013-08-23 20:46:00,
2013-08-23 15:51:00,82.0,62.1,30.07,East,88,4.0,8.0,51,0.00,,CLR,0.00,675.00,VWS V14.01,2013-08-23 20:51:00,
2013-08-23 15:56:00,82.0,62.1,30.06,ENE,75,5.0,11.0,51,0.00,,CLR,0.00,659.00,VWS V14.01,2013-08-23 20:56:00,
2013-08-23 16:01:00,82.2,61.7,30.06,NNE,28,3.0,5.0,50,0.00,,CLR,0.00,642.00,VWS V14.01,2013-08-23 21:01:00,
2013-08-23 16:06:00,82.2,61.7,30.06,NNE,15,6.0,10.0,50,0.00,,CLR,0.00,631.00,VWS V14.01,2013-08-23 21:06:00,
2013-08-23 16:11:00,82.2,61.7,30.06,NE,46,6.0,8.0,50,0.00,,CLR,0.00,622.00,VWS V14.01,2013-08-23 21:11:00,
2013-08-23 16:16:00,82.2,61.7,30.06,NE,41,7.0,8.0,50,0.00,,CLR,0.00,605.00,VWS V14.01,2013-08-23 21:16:00,
2013-08-23 16:21:00,81.8,61.9,30.06,NE,42,5.0,10.0,51,0.00,,CLR,0.00,592.00,VWS V14.01,2013-08-23 21:21:00,
2013-08-23 16:26:00,81.8,61.9,30.06,NE,51,2.0,6.0,51,0.00,,CLR,0.00,571.00,VWS V14.01,2013-08-23 21:26:00,
2013-08-23 16:31:00,82.0,61.5,30.06,ENE,59,5.0,10.0,50,0.00,,CLR,0.00,557.00,VWS V14.01,2013-08-23 21:31:00,
2013-08-23 16:36:00,82.0,61.5,30.06,North,11,6.0,10.0,50,0.00,,CLR,0.00,547.00,VWS V14.01,2013-08-23 21:36:00,
2013-08-23 16:41:00,82.2,62.3,30.06,NE,34,4.0,8.0,51,0.00,,CLR,0.00,526.00,VWS V14.01,2013-08-23 21:41:00,
2013-08-23 16:46:00,82.0,62.1,30.06,ENE,65,7.0,9.0,51,0.00,,CLR,0.00,512.00,VWS V14.01,2013-08-23 21:46:00,
2013-08-23 16:51:00,81.6,62.3,30.06,NE,38,5.0,7.0,52,0.00,,CLR,0.00,496.00,VWS V14.01,2013-08-23 21:51:00,
2013-08-23 16:56:00,81.8,62.5,30.06,NNE,13,3.0,7.0,52,0.00,,CLR,0.00,478.00,VWS V14.01,2013-08-23 21:56:00,
2013-08-23 17:01:00,81.6,61.7,30.06,East,84,6.0,6.0,51,0.00,,CLR,0.00,462.00,VWS V14.01,2013-08-23 22:01:00,
2013-08-23 17:06:00,81.6,61.7,30.06,NE,51,1.0,5.0,51,0.00,,CLR,0.00,452.00,VWS V14.01,2013-08-23 22:06:00,
2013-08-23 17:11:00,81.6,61.7,30.06,North,11,8.0,12.0,51,0.00,,CLR,0.00,427.00,VWS V14.01,2013-08-23 22:11:00,
2013-08-23 17:16:00,81.6,61.7,30.06,NNE,16,6.0,8.0,51,0.00,,CLR,0.00,417.00,VWS V14.01,2013-08-23 22:16:00,
2013-08-23 17:21:00,81.4,62.1,30.06,NNE,15,7.0,9.0,52,0.00,,CLR,0.00,396.00,VWS V14.01,2013-08-23 22:21:00,
2013-08-23 17:26:00,81.2,61.9,30.06,NNE,26,5.0,5.0,52,0.00,,CLR,0.00,378.00,VWS V14.01,2013-08-23 22:26:00,
2013-08-23 17:31:00,81.6,62.3,30.06,NNE,15,4.0,9.0,52,0.00,,CLR,0.00,362.00,VWS V14.01,2013-08-23 22:31:00,
2013-08-23 17:37:00,81.4,62.1,30.05,NNW,338,9.0,10.0,52,0.00,,CLR,0.00,345.00,VWS V14.01,2013-08-23 22:37:00,
2013-08-23 17:42:00,81.2,61.9,30.06,NNE,30,2.0,8.0,52,0.00,,CLR,0.00,325.00,VWS V14.01,2013-08-23 22:42:00,
2013-08-23 17:47:00,81.2,61.9,30.06,East,84,3.0,7.0,52,0.00,,CLR,0.00,309.00,VWS V14.01,2013-08-23 22:47:00,
2013-08-23 17:52:00,81.2,61.9,30.06,NNE,15,1.0,8.0,52,0.00,,CLR,0.00,292.00,VWS V14.01,2013-08-23 22:52:00,
2013-08-23 17:57:00,81.1,61.3,30.06,NE,34,2.0,8.0,51,0.00,,CLR,0.00,278.00,VWS V14.01,2013-08-23 22:57:00,
2013-08-23 18:02:00,81.1,61.8,30.06,ENE,70,4.0,5.0,52,0.00,,CLR,0.00,258.00,VWS V14.01,2013-08-23 23:02:00,
2013-08-23 18:07:00,80.9,61.6,30.06,NE,47,5.0,6.0,52,0.00,,CLR,0.00,241.00,VWS V14.01,2013-08-23 23:07:00,
2013-08-23 18:12:00,80.9,62.2,30.06,NNE,26,5.0,6.0,53,0.00,,CLR,0.00,223.00,VWS V14.01,2013-08-23 23:12:00,
2013-08-23 18:17:00,80.7,62.0,30.06,NNE,16,3.0,6.0,53,0.00,,CLR,0.00,206.00,VWS V14.01,2013-08-23 23:17:00,
2013-08-23 18:22:00,80.5,61.8,30.06,NE,38,8.0,8.0,53,0.00,,CLR,0.00,47.00,VWS V14.01,2013-08-23 23:22:00,
2013-08-23 18:27:00,80.3,61.6,30.06,NE,41,3.0,7.0,53,0.00,,CLR,0.00,46.00,VWS V14.01,2013-08-23 23:27:00,
2013-08-23 18:32:00,80.3,62.2,30.06,NE,42,4.0,6.0,54,0.00,,CLR,0.00,42.00,VWS V14.01,2013-08-23 23:32:00,
2013-08-23 18:37:00,80.1,61.4,30.06,NE,34,3.0,6.0,53,0.00,,CLR,0.00,40.00,VWS V14.01,2013-08-23 23:37:00,
2013-08-23 18:42:00,80.1,62.0,30.06,NE,41,4.0,4.0,54,0.00,,CLR,0.00,37.00,VWS V14.01,2013-08-23 23:42:00,
2013-08-23 18:47:00,79.9,61.8,30.06,ENE,67,6.0,6.0,54,0.00,,CLR,0.00,35.00,VWS V14.01,2013-08-23 23:47:00,
2013-08-23 18:52:00,79.8,61.7,30.06,NE,51,6.0,7.0,54,0.00,,CLR,0.00,33.00,VWS V14.01,2013-08-23 23:52:00,
2013-08-23 18:57:00,79.6,61.5,30.06,NE,50,3.0,6.0,54,0.00,,CLR,0.00,32.00,VWS V14.01,2013-08-23 23:57:00,
2013-08-23 19:02:00,79.4,61.8,30.06,NNE,28,5.0,7.0,55,0.00,,CLR,0.00,28.00,VWS V14.01,2013-08-24 00:02:00,
2013-08-23 19:07:00,79.2,62.2,30.06,NNE,30,2.0,5.0,56,0.00,,CLR,0.00,25.00,VWS V14.01,2013-08-24 00:07:00,
2013-08-23 19:12:00,79.0,62.5,30.06,NE,49,2.0,4.0,57,0.00,,CLR,0.00,23.00,VWS V14.01,2013-08-24 00:12:00,
2013-08-23 19:18:00,78.8,62.3,30.06,NE,49,4.0,4.0,57,0.00,,CLR,0.00,19.00,VWS V14.01,2013-08-24 00:18:00,
2013-08-23 19:23:00,78.6,62.6,30.06,NE,35,3.0,3.0,58,0.00,,CLR,0.00,16.00,VWS V14.01,2013-08-24 00:23:00,
2013-08-23 19:28:00,78.3,62.8,30.06,NE,35,1.0,2.0,59,0.00,,CLR,0.00,11.00,VWS V14.01,2013-08-24 00:28:00,
2013-08-23 19:33:00,78.1,63.1,30.06,NE,35,0.0,4.0,60,0.00,,CLR,0.00,7.00,VWS V14.01,2013-08-24 00:33:00,
2013-08-23 19:38:00,77.7,62.7,30.06,NE,35,2.0,3.0,60,0.00,,CLR,0.00,5.00,VWS V14.01,2013-08-24 00:38:00,
2013-08-23 19:43:00,77.6,63.1,30.06,NE,35,0.0,1.0,61,0.00,,CLR,0.00,0.00,VWS V14.01,2013-08-24 00:43:00,
2013-08-23 19:49:00,77.2,63.2,30.07,NE,35,0.0,0.0,62,0.00,,CLR,0.00,0.00,VWS V14.01,2013-08-24 00:49:00,
2013-08-23 19:54:00,76.8,63.3,30.07,NE,35,2.0,2.0,63,0.00,,CLR,0.00,0.00,VWS V14.01,2013-08-24 00:54:00,
2013-08-23 19:59:00,76.5,63.9,30.07,NE,35,0.0,1.0,65,0.00,,CLR,0.00,0.00,VWS V14.01,2013-08-24 00:59:00,
2013-08-23 20:04:00,76.1,63.5,30.07,NE,36,0.0,0.0,65,0.00,,CLR,0.00,0.00,VWS V14.01,2013-08-24 01:04:00,
2013-08-23 20:09:00,76.0,63.8,30.07,NE,36,0.0,0.0,66,0.00,,CLR,0.00,0.00,VWS V14.01,2013-08-24 01:09:00,
2013-08-23 20:14:00,75.8,63.6,30.07,NE,36,0.0,0.0,66,0.00,,CLR,0.00,0.00,VWS V14.01,2013-08-24 01:14:00,
2013-08-23 20:19:00,75.4,63.3,30.07,NE,36,0.0,0.0,66,0.00,,CLR,0.00,0.00,VWS V14.01,2013-08-24 01:19:00,
2013-08-23 20:24:00,75.4,63.7,30.07,NE,36,0.0,0.0,67,0.00,,CLR,0.00,0.00,VWS V14.01,2013-08-24 01:24:00,
2013-08-23 20:29:00,75.1,63.4,30.08,NE,36,0.0,0.0,67,0.00,,CLR,0.00,0.00,VWS V14.01,2013-08-24 01:29:00,
2013-08-23 20:34:00,74.9,63.2,30.08,NE,36,0.0,0.0,67,0.00,,CLR,0.00,0.00,VWS V14.01,2013-08-24 01:34:00,
2013-08-23 20:39:00,74.7,63.0,30.08,NE,37,0.0,0.0,67,0.00,,CLR,0.00,0.00,VWS V14.01,2013-08-24 01:39:00,
2013-08-23 20:44:00,74.7,63.5,30.08,NE,37,0.0,0.0,68,0.00,,CLR,0.00,0.00,VWS V14.01,2013-08-24 01:44:00,
2013-08-23 20:49:00,74.6,63.3,30.09,NE,37,0.0,0.0,68,0.00,,CLR,0.00,0.00,VWS V14.01,2013-08-24 01:49:00,
2013-08-23 20:54:00,74.2,63.4,30.09,NE,37,0.0,0.0,69,0.00,,CLR,0.00,0.00,VWS V14.01,2013-08-24 01:54:00,
2013-08-23 20:59:00,74.0,63.2,30.09,NE,37,0.0,0.0,69,0.00,,CLR,0.00,0.00,VWS V14.01,2013-08-24 01:59:00,
2013-08-23 21:04:00,73.7,63.3,30.09,NE,37,0.0,0.0,70,0.00,,CLR,0.00,0.00,VWS V14.01,2013-08-24 02:04:00,
2013-08-23 21:10:00,73.5,63.5,30.09,NE,37,0.0,0.0,71,0.00,,CLR,0.00,0.00,VWS V14.01,2013-08-24 02:10:00,
2013-08-23 21:15:00,73.2,63.2,30.10,NE,37,1.0,2.0,71,0.00,,CLR,0.00,0.00,VWS V14.01,2013-08-24 02:15:00,
2013-08-23 21:20:00,73.0,63.5,30.10,NE,37,2.0,2.0,72,0.00,,CLR,0.00,0.00,VWS V14.01,2013-08-24 02:20:00,
2013-08-23 21:25:00,72.8,63.3,30.10,NE,37,0.0,0.0,72,0.00,,CLR,0.00,0.00,VWS V14.01,2013-08-24 02:25:00,
2013-08-23 21:30:00,72.7,63.2,30.10,NE,37,0.0,0.0,72,0.00,,CLR,0.00,0.00,VWS V14.01,2013-08-24 02:30:00,
2013-08-23 21:35:00,72.5,63.0,30.10,NE,37,0.0,1.0,72,0.00,,CLR,0.00,0.00,VWS V14.01,2013-08-24 02:35:00,
2013-08-23 21:40:00,72.3,62.8,30.10,NE,37,1.0,2.0,72,0.00,,CLR,0.00,0.00,VWS V14.01,2013-08-24 02:40:00,
2013-08-23 21:45:00,72.1,63.0,30.11,NE,37,2.0,3.0,73,0.00,,CLR,0.00,0.00,VWS V14.01,2013-08-24 02:45:00,
2013-08-23 21:50:00,71.8,62.7,30.10,NE,37,4.0,4.0,73,0.00,,CLR,0.00,0.00,VWS V14.01,2013-08-24 02:50:00,
2013-08-23 21:55:00,71.8,62.7,30.11,NE,37,1.0,1.0,73,0.00,,CLR,0.00,0.00,VWS V14.01,2013-08-24 02:55:00,
2013-08-23 22:00:00,71.6,62.5,30.11,NE,37,1.0,3.0,73,0.00,,CLR,0.00,0.00,VWS V14.01,2013-08-24 03:00:00,
2013-08-23 22:05:00,71.5,62.4,30.11,NE,37,3.0,3.0,73,0.00,,CLR,0.00,0.00,VWS V14.01,2013-08-24 03:05:00,
2013-08-23 22:10:00,71.1,62.4,30.11,NE,37,2.0,5.0,74,0.00,,CLR,0.00,0.00,VWS V14.01,2013-08-24 03:10:00,
2013-08-23 22:15:00,70.9,62.2,30.11,NE,36,3.0,3.0,74,0.00,,CLR,0.00,0.00,VWS V14.01,2013-08-24 03:15:00,
2013-08-23 22:20:00,70.6,62.3,30.11,NE,40,5.0,5.0,75,0.00,,CLR,0.00,0.00,VWS V14.01,2013-08-24 03:20:00,
2013-08-23 22:25:00,70.4,62.1,30.11,NNE,31,2.0,3.0,75,0.00,,CLR,0.00,0.00,VWS V14.01,2013-08-24 03:25:00,
2013-08-23 22:31:00,70.1,61.8,30.11,NE,36,5.0,6.0,75,0.00,,CLR,0.00,0.00,VWS V14.01,2013-08-24 03:31:00,
2013-08-23 22:36:00,69.9,61.6,30.11,NE,38,0.0,4.0,75,0.00,,CLR,0.00,0.00,VWS V14.01,2013-08-24 03:36:00,
2013-08-23 22:41:00,69.8,61.2,30.11,NE,38,4.0,6.0,74,0.00,,CLR,0.00,0.00,VWS V14.01,2013-08-24 03:41:00,
2013-08-23 22:47:00,69.6,61.0,30.11,NE,42,3.0,5.0,74,0.00,,CLR,0.00,0.00,VWS V14.01,2013-08-24 03:47:00,
2013-08-23 22:52:00,69.6,60.6,30.11,ENE,71,2.0,7.0,73,0.00,,CLR,0.00,0.00,VWS V14.01,2013-08-24 03:52:00,
2013-08-23 22:57:00,69.4,60.0,30.11,ENE,61,3.0,4.0,72,0.00,,CLR,0.00,0.00,VWS V14.01,2013-08-24 03:57:00,
2013-08-23 23:01:00,69.4,60.0,30.11,ENE,65,5.0,5.0,72,0.00,,CLR,0.00,0.00,VWS V14.01,2013-08-24 04:01:00,
2013-08-23 23:02:00,69.4,60.0,30.11,ENE,64,4.0,6.0,72,0.00,,CLR,0.00,0.00,VWS V14.01,2013-08-24 04:02:00,
2013-08-23 23:05:00,69.3,59.9,30.11,NE,41,5.0,7.0,72,0.00,,CLR,0.00,0.00,VWS V14.01,2013-08-24 04:05:00,
2013-08-23 23:07:00,69.3,59.9,30.11,NE,43,3.0,4.0,72,0.00,,CLR,0.00,0.00,VWS V14.01,2013-08-24 04:07:00,
2013-08-23 23:11:00,69.1,59.7,30.11,NE,43,0.0,3.0,72,0.00,,CLR,0.00,0.00,VWS V14.01,2013-08-24 04:11:00,
2013-08-23 23:16:00,68.9,59.1,30.11,NE,43,1.0,4.0,71,0.00,,CLR,0.00,0.00,VWS V14.01,2013-08-24 04:16:00,
2013-08-23 23:21:00,68.8,59.4,30.11,NE,47,0.0,4.0,72,0.00,,CLR,0.00,0.00,VWS V14.01,2013-08-24 04:21:00,
2013-08-23 23:26:00,68.8,59.4,30.11,ENE,65,2.0,5.0,72,0.00,,CLR,0.00,0.00,VWS V14.01,2013-08-24 04:26:00,
2013-08-23 23:31:00,68.6,59.2,30.11,East,83,3.0,5.0,72,0.00,,CLR,0.00,0.00,VWS V14.01,2013-08-24 04:31:00,
2013-08-23 23:36:00,68.4,59.0,30.11,ENE,67,4.0,7.0,72,0.00,,CLR,0.00,0.00,VWS V14.01,2013-08-24 04:36:00,
2013-08-23 23:42:00,68.3,58.9,30.11,ENE,58,3.0,5.0,72,0.00,,CLR,0.00,0.00,VWS V14.01,2013-08-24 04:42:00,
2013-08-23 23:47:00,68.1,59.1,30.12,ENE,64,2.0,4.0,73,0.00,,CLR,0.00,0.00,VWS V14.01,2013-08-24 04:47:00,
2013-08-23 23:52:00,67.9,58.9,30.12,ENE,69,0.0,3.0,73,0.00,,CLR,0.00,0.00,VWS V14.01,2013-08-24 04:52:00,
2013-08-23 23:57:00,67.8,58.8,30.12,ENE,71,0.0,0.0,73,0.00,,CLR,0.00,0.00,VWS V14.01,2013-08-24 04:57:00,